sensor_id;sensor_type;location;lat;lon;timestamp;P1;durP1;ratioP1;P2;durP2;ratioP2
20480;SDS011;10399;50.754;3.366;2024-01-30T00:02:02;13.23;;;8.02;;
20480;SDS011;10399;50.754;3.366;2024-01-30T00:04:29;13.65;;;7.53;;
20480;SDS011;10399;50.754;3.366;2024-01-30T00:06:57;14.45;;;7.28;;
20480;SDS011;10399;50.754;3.366;2024-01-30T00:09:25;11.38;;;7.40;;
20480;SDS011;10399;50.754;3.366;2024-01-30T00:11:56;16.67;;;8.25;;
20480;SDS011;10399;50.754;3.366;2024-01-30T00:14:24;12.13;;;7.65;;
20480;SDS011;10399;50.754;3.366;2024-01-30T00:16:51;12.73;;;7.57;;
20480;SDS011;10399;50.754;3.366;2024-01-30T00:19:20;12.45;;;8.23;;
20480;SDS011;10399;50.754;3.366;2024-01-30T00:21:47;14.15;;;8.07;;
20480;SDS011;10399;50.754;3.366;2024-01-30T00:24:14;16.58;;;7.53;;
20480;SDS011;10399;50.754;3.366;2024-01-30T00:26:41;14.43;;;8.38;;
20480;SDS011;10399;50.754;3.366;2024-01-30T00:29:08;11.43;;;7.47;;
20480;SDS011;10399;50.754;3.366;2024-01-30T00:31:35;13.80;;;8.00;;
20480;SDS011;10399;50.754;3.366;2024-01-30T00:34:07;14.15;;;7.82;;
20480;SDS011;10399;50.754;3.366;2024-01-30T00:36:34;15.95;;;8.90;;
20480;SDS011;10399;50.754;3.366;2024-01-30T00:39:03;18.90;;;7.82;;
20480;SDS011;10399;50.754;3.366;2024-01-30T00:41:33;20.90;;;8.82;;
20480;SDS011;10399;50.754;3.366;2024-01-30T00:44:01;20.08;;;9.38;;
20480;SDS011;10399;50.754;3.366;2024-01-30T00:46:28;22.17;;;9.30;;
20480;SDS011;10399;50.754;3.366;2024-01-30T00:48:55;26.25;;;9.27;;
20480;SDS011;10399;50.754;3.366;2024-01-30T00:51:22;28.10;;;9.65;;
20480;SDS011;10399;50.754;3.366;2024-01-30T00:53:50;29.90;;;10.23;;
20480;SDS011;10399;50.754;3.366;2024-01-30T00:56:18;22.80;;;10.15;;
20480;SDS011;10399;50.754;3.366;2024-01-30T00:58:46;17.73;;;8.85;;
20480;SDS011;10399;50.754;3.366;2024-01-30T01:01:13;17.30;;;8.93;;
20480;SDS011;10399;50.754;3.366;2024-01-30T01:03:42;17.63;;;8.50;;
20480;SDS011;10399;50.754;3.366;2024-01-30T01:06:11;15.25;;;7.97;;
20480;SDS011;10399;50.754;3.366;2024-01-30T01:08:38;15.50;;;8.70;;
20480;SDS011;10399;50.754;3.366;2024-01-30T01:11:06;18.63;;;9.10;;
20480;SDS011;10399;50.754;3.366;2024-01-30T01:13:35;18.52;;;9.38;;
20480;SDS011;10399;50.754;3.366;2024-01-30T01:16:02;20.35;;;9.60;;
20480;SDS011;10399;50.754;3.366;2024-01-30T01:18:31;21.45;;;10.23;;
20480;SDS011;10399;50.754;3.366;2024-01-30T01:20:58;17.08;;;8.38;;
20480;SDS011;10399;50.754;3.366;2024-01-30T01:23:25;14.80;;;8.48;;
20480;SDS011;10399;50.754;3.366;2024-01-30T01:25:54;13.38;;;7.95;;
20480;SDS011;10399;50.754;3.366;2024-01-30T01:28:26;14.32;;;8.75;;
20480;SDS011;10399;50.754;3.366;2024-01-30T01:30:53;16.00;;;9.00;;
20480;SDS011;10399;50.754;3.366;2024-01-30T01:33:26;16.05;;;8.45;;
20480;SDS011;10399;50.754;3.366;2024-01-30T01:35:53;14.68;;;8.32;;
20480;SDS011;10399;50.754;3.366;2024-01-30T01:38:20;13.13;;;8.50;;
20480;SDS011;10399;50.754;3.366;2024-01-30T01:40:48;13.68;;;8.15;;
20480;SDS011;10399;50.754;3.366;2024-01-30T01:43:15;15.73;;;9.02;;
20480;SDS011;10399;50.754;3.366;2024-01-30T01:45:45;15.35;;;8.70;;
20480;SDS011;10399;50.754;3.366;2024-01-30T01:48:16;13.60;;;8.32;;
20480;SDS011;10399;50.754;3.366;2024-01-30T01:50:44;15.07;;;8.60;;
20480;SDS011;10399;50.754;3.366;2024-01-30T01:53:11;12.10;;;8.27;;
20480;SDS011;10399;50.754;3.366;2024-01-30T01:55:39;14.27;;;8.70;;
20480;SDS011;10399;50.754;3.366;2024-01-30T01:58:08;13.07;;;8.40;;
20480;SDS011;10399;50.754;3.366;2024-01-30T02:00:38;12.90;;;9.00;;
20480;SDS011;10399;50.754;3.366;2024-01-30T02:03:10;16.52;;;9.45;;
20480;SDS011;10399;50.754;3.366;2024-01-30T02:05:39;13.57;;;8.45;;
20480;SDS011;10399;50.754;3.366;2024-01-30T02:08:08;12.60;;;8.30;;
20480;SDS011;10399;50.754;3.366;2024-01-30T02:10:36;16.05;;;9.50;;
20480;SDS011;10399;50.754;3.366;2024-01-30T02:13:03;19.70;;;9.73;;
20480;SDS011;10399;50.754;3.366;2024-01-30T02:15:31;14.57;;;9.68;;
20480;SDS011;10399;50.754;3.366;2024-01-30T02:17:59;14.95;;;9.30;;
20480;SDS011;10399;50.754;3.366;2024-01-30T02:20:26;17.38;;;9.52;;
20480;SDS011;10399;50.754;3.366;2024-01-30T02:22:58;12.55;;;8.65;;
20480;SDS011;10399;50.754;3.366;2024-01-30T02:25:42;14.23;;;8.45;;
20480;SDS011;10399;50.754;3.366;2024-01-30T02:28:13;11.77;;;8.27;;
20480;SDS011;10399;50.754;3.366;2024-01-30T02:30:43;12.23;;;8.27;;
20480;SDS011;10399;50.754;3.366;2024-01-30T02:33:13;13.65;;;8.57;;
20480;SDS011;10399;50.754;3.366;2024-01-30T02:35:41;13.75;;;8.43;;
20480;SDS011;10399;50.754;3.366;2024-01-30T02:38:08;13.50;;;8.55;;
20480;SDS011;10399;50.754;3.366;2024-01-30T02:40:35;19.45;;;9.10;;
20480;SDS011;10399;50.754;3.366;2024-01-30T02:43:04;20.30;;;8.85;;
20480;SDS011;10399;50.754;3.366;2024-01-30T02:45:31;18.02;;;8.88;;
20480;SDS011;10399;50.754;3.366;2024-01-30T02:47:58;13.90;;;8.63;;
20480;SDS011;10399;50.754;3.366;2024-01-30T02:50:25;17.02;;;9.27;;
20480;SDS011;10399;50.754;3.366;2024-01-30T02:52:52;12.23;;;8.40;;
20480;SDS011;10399;50.754;3.366;2024-01-30T02:55:19;13.65;;;7.85;;
20480;SDS011;10399;50.754;3.366;2024-01-30T02:57:46;12.27;;;7.70;;
20480;SDS011;10399;50.754;3.366;2024-01-30T03:00:13;12.88;;;8.93;;
20480;SDS011;10399;50.754;3.366;2024-01-30T03:02:40;13.00;;;8.35;;
20480;SDS011;10399;50.754;3.366;2024-01-30T03:05:07;12.80;;;8.23;;
20480;SDS011;10399;50.754;3.366;2024-01-30T03:07:35;14.32;;;8.55;;
20480;SDS011;10399;50.754;3.366;2024-01-30T03:10:02;14.48;;;8.75;;
20480;SDS011;10399;50.754;3.366;2024-01-30T03:12:30;15.52;;;8.20;;
20480;SDS011;10399;50.754;3.366;2024-01-30T03:14:57;14.75;;;8.35;;
20480;SDS011;10399;50.754;3.366;2024-01-30T03:17:24;9.88;;;7.65;;
20480;SDS011;10399;50.754;3.366;2024-01-30T03:19:52;18.88;;;8.50;;
20480;SDS011;10399;50.754;3.366;2024-01-30T03:22:19;12.35;;;8.30;;
20480;SDS011;10399;50.754;3.366;2024-01-30T03:24:46;10.55;;;8.07;;
20480;SDS011;10399;50.754;3.366;2024-01-30T03:27:13;12.68;;;8.75;;
20480;SDS011;10399;50.754;3.366;2024-01-30T03:29:40;15.15;;;8.55;;
20480;SDS011;10399;50.754;3.366;2024-01-30T03:32:07;15.55;;;8.18;;
20480;SDS011;10399;50.754;3.366;2024-01-30T03:34:34;12.85;;;8.35;;
20480;SDS011;10399;50.754;3.366;2024-01-30T03:37:01;13.63;;;8.23;;
20480;SDS011;10399;50.754;3.366;2024-01-30T03:39:28;13.35;;;8.52;;
20480;SDS011;10399;50.754;3.366;2024-01-30T03:41:57;13.18;;;8.55;;
20480;SDS011;10399;50.754;3.366;2024-01-30T03:44:24;13.52;;;8.20;;
20480;SDS011;10399;50.754;3.366;2024-01-30T03:46:51;13.93;;;8.18;;
20480;SDS011;10399;50.754;3.366;2024-01-30T03:49:18;14.90;;;8.32;;
20480;SDS011;10399;50.754;3.366;2024-01-30T03:51:45;14.32;;;7.95;;
20480;SDS011;10399;50.754;3.366;2024-01-30T03:54:14;15.80;;;8.60;;
20480;SDS011;10399;50.754;3.366;2024-01-30T03:56:41;16.77;;;8.13;;
20480;SDS011;10399;50.754;3.366;2024-01-30T03:59:08;13.45;;;8.30;;
20480;SDS011;10399;50.754;3.366;2024-01-30T04:01:35;17.80;;;8.95;;
20480;SDS011;10399;50.754;3.366;2024-01-30T04:04:02;19.40;;;8.98;;
20480;SDS011;10399;50.754;3.366;2024-01-30T04:06:31;22.83;;;9.40;;
20480;SDS011;10399;50.754;3.366;2024-01-30T04:08:58;17.60;;;9.07;;
20480;SDS011;10399;50.754;3.366;2024-01-30T04:11:25;18.70;;;9.13;;
20480;SDS011;10399;50.754;3.366;2024-01-30T04:13:52;16.00;;;8.00;;
20480;SDS011;10399;50.754;3.366;2024-01-30T04:16:22;13.73;;;8.55;;
20480;SDS011;10399;50.754;3.366;2024-01-30T04:18:51;12.75;;;7.93;;
20480;SDS011;10399;50.754;3.366;2024-01-30T04:21:20;13.23;;;8.40;;
20480;SDS011;10399;50.754;3.366;2024-01-30T04:23:47;12.63;;;8.20;;
20480;SDS011;10399;50.754;3.366;2024-01-30T04:26:15;15.43;;;8.57;;
20480;SDS011;10399;50.754;3.366;2024-01-30T04:28:42;15.68;;;8.95;;
20480;SDS011;10399;50.754;3.366;2024-01-30T04:31:10;17.52;;;9.23;;
20480;SDS011;10399;50.754;3.366;2024-01-30T04:33:38;19.67;;;8.93;;
20480;SDS011;10399;50.754;3.366;2024-01-30T04:36:07;21.17;;;9.73;;
20480;SDS011;10399;50.754;3.366;2024-01-30T04:38:38;18.75;;;8.52;;
20480;SDS011;10399;50.754;3.366;2024-01-30T04:41:05;21.92;;;9.30;;
20480;SDS011;10399;50.754;3.366;2024-01-30T04:43:34;18.90;;;8.75;;
20480;SDS011;10399;50.754;3.366;2024-01-30T04:46:01;16.25;;;9.32;;
20480;SDS011;10399;50.754;3.366;2024-01-30T04:48:28;14.23;;;8.20;;
20480;SDS011;10399;50.754;3.366;2024-01-30T04:50:57;12.40;;;8.48;;
20480;SDS011;10399;50.754;3.366;2024-01-30T04:53:25;14.10;;;7.85;;
20480;SDS011;10399;50.754;3.366;2024-01-30T04:55:52;14.27;;;8.50;;
20480;SDS011;10399;50.754;3.366;2024-01-30T04:58:19;11.85;;;7.85;;
20480;SDS011;10399;50.754;3.366;2024-01-30T05:00:46;15.20;;;7.88;;
20480;SDS011;10399;50.754;3.366;2024-01-30T05:03:19;14.75;;;8.48;;
20480;SDS011;10399;50.754;3.366;2024-01-30T05:05:46;13.48;;;8.55;;
20480;SDS011;10399;50.754;3.366;2024-01-30T05:08:13;15.00;;;8.85;;
20480;SDS011;10399;50.754;3.366;2024-01-30T05:10:40;14.60;;;8.25;;
20480;SDS011;10399;50.754;3.366;2024-01-30T05:13:07;21.65;;;9.50;;
20480;SDS011;10399;50.754;3.366;2024-01-30T05:15:34;18.40;;;9.65;;
20480;SDS011;10399;50.754;3.366;2024-01-30T05:18:01;16.60;;;8.88;;
20480;SDS011;10399;50.754;3.366;2024-01-30T05:20:28;19.52;;;9.40;;
20480;SDS011;10399;50.754;3.366;2024-01-30T05:22:55;25.73;;;10.48;;
20480;SDS011;10399;50.754;3.366;2024-01-30T05:25:22;21.42;;;10.02;;
20480;SDS011;10399;50.754;3.366;2024-01-30T05:27:50;27.63;;;11.65;;
20480;SDS011;10399;50.754;3.366;2024-01-30T05:30:16;23.73;;;10.98;;
20480;SDS011;10399;50.754;3.366;2024-01-30T05:32:43;30.48;;;10.13;;
20480;SDS011;10399;50.754;3.366;2024-01-30T05:35:10;28.80;;;10.88;;
20480;SDS011;10399;50.754;3.366;2024-01-30T05:37:37;23.73;;;11.27;;
20480;SDS011;10399;50.754;3.366;2024-01-30T05:40:05;24.33;;;10.57;;
20480;SDS011;10399;50.754;3.366;2024-01-30T05:42:32;23.42;;;9.63;;
20480;SDS011;10399;50.754;3.366;2024-01-30T05:44:59;22.92;;;9.77;;
20480;SDS011;10399;50.754;3.366;2024-01-30T05:47:26;24.60;;;9.80;;
20480;SDS011;10399;50.754;3.366;2024-01-30T05:49:53;27.73;;;9.55;;
20480;SDS011;10399;50.754;3.366;2024-01-30T05:52:21;26.55;;;9.88;;
20480;SDS011;10399;50.754;3.366;2024-01-30T05:54:48;25.63;;;9.98;;
20480;SDS011;10399;50.754;3.366;2024-01-30T05:57:15;21.38;;;8.93;;
20480;SDS011;10399;50.754;3.366;2024-01-30T05:59:42;18.52;;;9.07;;
20480;SDS011;10399;50.754;3.366;2024-01-30T06:02:10;16.27;;;7.95;;
20480;SDS011;10399;50.754;3.366;2024-01-30T06:04:38;16.90;;;8.50;;
20480;SDS011;10399;50.754;3.366;2024-01-30T06:07:05;15.88;;;8.98;;
20480;SDS011;10399;50.754;3.366;2024-01-30T06:09:32;15.30;;;8.95;;
20480;SDS011;10399;50.754;3.366;2024-01-30T06:11:59;15.60;;;8.15;;
20480;SDS011;10399;50.754;3.366;2024-01-30T06:14:26;14.10;;;8.27;;
20480;SDS011;10399;50.754;3.366;2024-01-30T06:16:53;18.08;;;9.10;;
20480;SDS011;10399;50.754;3.366;2024-01-30T06:19:20;19.52;;;9.35;;
20480;SDS011;10399;50.754;3.366;2024-01-30T06:21:47;14.63;;;8.40;;
20480;SDS011;10399;50.754;3.366;2024-01-30T06:24:14;24.75;;;8.48;;
20480;SDS011;10399;50.754;3.366;2024-01-30T06:26:41;16.33;;;8.57;;
20480;SDS011;10399;50.754;3.366;2024-01-30T06:29:08;13.20;;;8.07;;
20480;SDS011;10399;50.754;3.366;2024-01-30T06:31:41;16.98;;;8.60;;
20480;SDS011;10399;50.754;3.366;2024-01-30T06:34:09;19.27;;;8.32;;
20480;SDS011;10399;50.754;3.366;2024-01-30T06:36:37;17.63;;;8.68;;
20480;SDS011;10399;50.754;3.366;2024-01-30T06:39:04;17.35;;;8.30;;
20480;SDS011;10399;50.754;3.366;2024-01-30T06:41:32;14.05;;;7.80;;
20480;SDS011;10399;50.754;3.366;2024-01-30T06:43:59;14.15;;;8.68;;
20480;SDS011;10399;50.754;3.366;2024-01-30T06:46:26;15.65;;;8.65;;
20480;SDS011;10399;50.754;3.366;2024-01-30T06:48:54;14.65;;;8.10;;
20480;SDS011;10399;50.754;3.366;2024-01-30T06:51:21;12.13;;;8.55;;
20480;SDS011;10399;50.754;3.366;2024-01-30T06:53:48;13.55;;;8.60;;
20480;SDS011;10399;50.754;3.366;2024-01-30T06:56:15;14.85;;;7.85;;
20480;SDS011;10399;50.754;3.366;2024-01-30T06:58:47;14.30;;;8.40;;
20480;SDS011;10399;50.754;3.366;2024-01-30T07:01:14;18.00;;;9.15;;
20480;SDS011;10399;50.754;3.366;2024-01-30T07:03:42;15.55;;;7.88;;
20480;SDS011;10399;50.754;3.366;2024-01-30T07:06:10;15.95;;;8.80;;
20480;SDS011;10399;50.754;3.366;2024-01-30T07:08:37;12.90;;;8.32;;
20480;SDS011;10399;50.754;3.366;2024-01-30T07:11:07;17.27;;;8.65;;
20480;SDS011;10399;50.754;3.366;2024-01-30T07:13:34;13.25;;;9.13;;
20480;SDS011;10399;50.754;3.366;2024-01-30T07:16:01;17.33;;;9.23;;
20480;SDS011;10399;50.754;3.366;2024-01-30T07:18:28;25.77;;;9.85;;
20480;SDS011;10399;50.754;3.366;2024-01-30T07:20:55;13.98;;;8.70;;
20480;SDS011;10399;50.754;3.366;2024-01-30T07:23:22;13.70;;;8.93;;
20480;SDS011;10399;50.754;3.366;2024-01-30T07:25:49;16.20;;;8.70;;
20480;SDS011;10399;50.754;3.366;2024-01-30T07:28:17;14.68;;;9.10;;
20480;SDS011;10399;50.754;3.366;2024-01-30T07:30:44;13.02;;;9.20;;
20480;SDS011;10399;50.754;3.366;2024-01-30T07:33:12;15.32;;;8.50;;
20480;SDS011;10399;50.754;3.366;2024-01-30T07:35:39;12.75;;;8.82;;
20480;SDS011;10399;50.754;3.366;2024-01-30T07:38:06;14.23;;;8.45;;
20480;SDS011;10399;50.754;3.366;2024-01-30T07:40:33;15.43;;;8.75;;
20480;SDS011;10399;50.754;3.366;2024-01-30T07:43:00;15.80;;;9.77;;
20480;SDS011;10399;50.754;3.366;2024-01-30T07:45:29;14.85;;;8.90;;
20480;SDS011;10399;50.754;3.366;2024-01-30T07:47:59;16.40;;;9.52;;
20480;SDS011;10399;50.754;3.366;2024-01-30T07:50:27;17.77;;;9.10;;
20480;SDS011;10399;50.754;3.366;2024-01-30T07:52:55;19.52;;;9.75;;
20480;SDS011;10399;50.754;3.366;2024-01-30T07:55:23;15.18;;;8.98;;
20480;SDS011;10399;50.754;3.366;2024-01-30T07:57:58;14.35;;;9.27;;
20480;SDS011;10399;50.754;3.366;2024-01-30T08:00:26;23.15;;;10.57;;
20480;SDS011;10399;50.754;3.366;2024-01-30T08:02:55;18.85;;;10.25;;
20480;SDS011;10399;50.754;3.366;2024-01-30T08:05:23;18.90;;;9.88;;
20480;SDS011;10399;50.754;3.366;2024-01-30T08:07:50;17.85;;;10.13;;
20480;SDS011;10399;50.754;3.366;2024-01-30T08:10:18;21.08;;;10.95;;
20480;SDS011;10399;50.754;3.366;2024-01-30T08:12:45;24.83;;;10.88;;
20480;SDS011;10399;50.754;3.366;2024-01-30T08:15:13;19.48;;;11.43;;
20480;SDS011;10399;50.754;3.366;2024-01-30T08:17:40;20.23;;;11.52;;
20480;SDS011;10399;50.754;3.366;2024-01-30T08:20:07;19.17;;;10.30;;
20480;SDS011;10399;50.754;3.366;2024-01-30T08:22:40;25.88;;;9.15;;
20480;SDS011;10399;50.754;3.366;2024-01-30T08:25:07;17.23;;;9.73;;
20480;SDS011;10399;50.754;3.366;2024-01-30T08:27:36;15.75;;;9.68;;
20480;SDS011;10399;50.754;3.366;2024-01-30T08:30:08;20.25;;;9.70;;
20480;SDS011;10399;50.754;3.366;2024-01-30T08:32:35;22.90;;;9.18;;
20480;SDS011;10399;50.754;3.366;2024-01-30T08:35:02;19.58;;;9.65;;
20480;SDS011;10399;50.754;3.366;2024-01-30T08:37:30;19.38;;;9.93;;
20480;SDS011;10399;50.754;3.366;2024-01-30T08:39:57;21.25;;;9.77;;
20480;SDS011;10399;50.754;3.366;2024-01-30T08:42:25;17.17;;;9.07;;
20480;SDS011;10399;50.754;3.366;2024-01-30T08:44:52;21.17;;;9.70;;
20480;SDS011;10399;50.754;3.366;2024-01-30T08:47:20;24.25;;;9.15;;
20480;SDS011;10399;50.754;3.366;2024-01-30T08:49:47;22.23;;;9.25;;
20480;SDS011;10399;50.754;3.366;2024-01-30T08:52:14;20.90;;;8.90;;
20480;SDS011;10399;50.754;3.366;2024-01-30T08:54:41;20.17;;;8.18;;
20480;SDS011;10399;50.754;3.366;2024-01-30T08:57:08;19.65;;;6.53;;
20480;SDS011;10399;50.754;3.366;2024-01-30T08:59:35;19.98;;;7.20;;
20480;SDS011;10399;50.754;3.366;2024-01-30T09:02:02;11.52;;;5.68;;
20480;SDS011;10399;50.754;3.366;2024-01-30T09:04:38;12.27;;;4.00;;
20480;SDS011;10399;50.754;3.366;2024-01-30T09:07:06;9.13;;;2.78;;
20480;SDS011;10399;50.754;3.366;2024-01-30T09:09:39;5.60;;;1.83;;
20480;SDS011;10399;50.754;3.366;2024-01-30T09:12:07;5.32;;;1.70;;
20480;SDS011;10399;50.754;3.366;2024-01-30T09:14:38;6.60;;;1.75;;
20480;SDS011;10399;50.754;3.366;2024-01-30T09:17:06;14.15;;;1.98;;
20480;SDS011;10399;50.754;3.366;2024-01-30T09:19:34;8.90;;;1.75;;
20480;SDS011;10399;50.754;3.366;2024-01-30T09:22:02;5.75;;;2.05;;
20480;SDS011;10399;50.754;3.366;2024-01-30T09:24:29;4.47;;;1.30;;
20480;SDS011;10399;50.754;3.366;2024-01-30T09:26:56;6.75;;;2.22;;
20480;SDS011;10399;50.754;3.366;2024-01-30T09:29:24;7.63;;;1.42;;
20480;SDS011;10399;50.754;3.366;2024-01-30T09:31:51;10.70;;;2.10;;
20480;SDS011;10399;50.754;3.366;2024-01-30T09:34:18;4.88;;;1.75;;
20480;SDS011;10399;50.754;3.366;2024-01-30T09:36:46;6.70;;;1.80;;
20480;SDS011;10399;50.754;3.366;2024-01-30T09:39:13;6.70;;;1.67;;
20480;SDS011;10399;50.754;3.366;2024-01-30T09:44:34;6.07;;;1.30;;
20480;SDS011;10399;50.754;3.366;2024-01-30T09:47:03;4.85;;;1.35;;
20480;SDS011;10399;50.754;3.366;2024-01-30T09:49:32;9.77;;;1.60;;
20480;SDS011;10399;50.754;3.366;2024-01-30T09:52:01;2.80;;;1.30;;
20480;SDS011;10399;50.754;3.366;2024-01-30T09:54:32;5.38;;;1.38;;
20480;SDS011;10399;50.754;3.366;2024-01-30T09:57:02;4.85;;;1.10;;
20480;SDS011;10399;50.754;3.366;2024-01-30T09:59:30;4.03;;;1.20;;
20480;SDS011;10399;50.754;3.366;2024-01-30T10:01:59;7.10;;;1.23;;
20480;SDS011;10399;50.754;3.366;2024-01-30T10:04:27;6.40;;;1.27;;
20480;SDS011;10399;50.754;3.366;2024-01-30T10:06:54;3.42;;;1.10;;
20480;SDS011;10399;50.754;3.366;2024-01-30T10:09:21;5.50;;;1.10;;
20480;SDS011;10399;50.754;3.366;2024-01-30T10:11:48;7.80;;;1.10;;
20480;SDS011;10399;50.754;3.366;2024-01-30T10:14:17;5.70;;;1.10;;
20480;SDS011;10399;50.754;3.366;2024-01-30T10:16:45;4.85;;;1.20;;
20480;SDS011;10399;50.754;3.366;2024-01-30T10:19:13;3.47;;;1.05;;
20480;SDS011;10399;50.754;3.366;2024-01-30T10:21:40;5.20;;;1.02;;
20480;SDS011;10399;50.754;3.366;2024-01-30T10:24:07;4.97;;;1.10;;
20480;SDS011;10399;50.754;3.366;2024-01-30T10:26:34;5.75;;;1.30;;
20480;SDS011;10399;50.754;3.366;2024-01-30T10:29:04;5.35;;;1.20;;
20480;SDS011;10399;50.754;3.366;2024-01-30T10:31:31;5.28;;;1.27;;
20480;SDS011;10399;50.754;3.366;2024-01-30T10:33:58;3.85;;;1.40;;
20480;SDS011;10399;50.754;3.366;2024-01-30T10:36:41;8.82;;;1.77;;
20480;SDS011;10399;50.754;3.366;2024-01-30T10:39:13;3.67;;;1.00;;
20480;SDS011;10399;50.754;3.366;2024-01-30T10:41:44;5.38;;;1.20;;
20480;SDS011;10399;50.754;3.366;2024-01-30T10:44:16;6.18;;;1.15;;
20480;SDS011;10399;50.754;3.366;2024-01-30T10:46:47;4.63;;;1.30;;
20480;SDS011;10399;50.754;3.366;2024-01-30T10:49:20;6.25;;;1.10;;
20480;SDS011;10399;50.754;3.366;2024-01-30T10:51:49;3.15;;;1.50;;
20480;SDS011;10399;50.754;3.366;2024-01-30T10:54:18;6.28;;;2.88;;
20480;SDS011;10399;50.754;3.366;2024-01-30T10:56:46;3.58;;;1.00;;
20480;SDS011;10399;50.754;3.366;2024-01-30T10:59:15;6.80;;;1.40;;
20480;SDS011;10399;50.754;3.366;2024-01-30T11:01:42;6.47;;;1.63;;
20480;SDS011;10399;50.754;3.366;2024-01-30T11:04:09;6.75;;;1.38;;
20480;SDS011;10399;50.754;3.366;2024-01-30T11:06:40;5.95;;;1.23;;
20480;SDS011;10399;50.754;3.366;2024-01-30T11:09:10;6.45;;;1.33;;
20480;SDS011;10399;50.754;3.366;2024-01-30T11:11:49;2.78;;;1.05;;
20480;SDS011;10399;50.754;3.366;2024-01-30T11:14:30;5.90;;;1.20;;
20480;SDS011;10399;50.754;3.366;2024-01-30T11:16:57;2.67;;;0.90;;
20480;SDS011;10399;50.754;3.366;2024-01-30T11:19:25;4.28;;;1.20;;
20480;SDS011;10399;50.754;3.366;2024-01-30T11:21:53;4.78;;;1.20;;
20480;SDS011;10399;50.754;3.366;2024-01-30T11:24:21;5.20;;;1.20;;
20480;SDS011;10399;50.754;3.366;2024-01-30T11:26:57;5.55;;;1.25;;
20480;SDS011;10399;50.754;3.366;2024-01-30T11:29:29;8.02;;;1.58;;
20480;SDS011;10399;50.754;3.366;2024-01-30T11:31:57;6.18;;;1.33;;
20480;SDS011;10399;50.754;3.366;2024-01-30T11:34:25;8.07;;;1.35;;
20480;SDS011;10399;50.754;3.366;2024-01-30T11:36:59;9.50;;;1.30;;
20480;SDS011;10399;50.754;3.366;2024-01-30T11:39:30;4.07;;;1.00;;
20480;SDS011;10399;50.754;3.366;2024-01-30T11:41:58;6.15;;;1.10;;
20480;SDS011;10399;50.754;3.366;2024-01-30T11:44:26;4.50;;;1.20;;
20480;SDS011;10399;50.754;3.366;2024-01-30T11:46:53;5.40;;;1.45;;
20480;SDS011;10399;50.754;3.366;2024-01-30T11:49:20;4.93;;;1.15;;
20480;SDS011;10399;50.754;3.366;2024-01-30T11:51:47;8.82;;;1.17;;
20480;SDS011;10399;50.754;3.366;2024-01-30T11:54:15;4.30;;;1.23;;
20480;SDS011;10399;50.754;3.366;2024-01-30T11:56:43;5.40;;;1.10;;
20480;SDS011;10399;50.754;3.366;2024-01-30T11:59:10;4.72;;;1.30;;
20480;SDS011;10399;50.754;3.366;2024-01-30T12:01:37;6.35;;;1.25;;
20480;SDS011;10399;50.754;3.366;2024-01-30T12:04:04;2.33;;;0.95;;
20480;SDS011;10399;50.754;3.366;2024-01-30T12:06:37;5.50;;;1.20;;
20480;SDS011;10399;50.754;3.366;2024-01-30T12:09:05;2.85;;;1.13;;
20480;SDS011;10399;50.754;3.366;2024-01-30T12:11:45;5.30;;;1.30;;
20480;SDS011;10399;50.754;3.366;2024-01-30T12:14:12;4.18;;;1.20;;
20480;SDS011;10399;50.754;3.366;2024-01-30T12:16:40;4.50;;;1.15;;
20480;SDS011;10399;50.754;3.366;2024-01-30T12:19:10;4.65;;;1.10;;
20480;SDS011;10399;50.754;3.366;2024-01-30T12:21:38;5.78;;;1.33;;
20480;SDS011;10399;50.754;3.366;2024-01-30T12:24:05;1.85;;;0.98;;
20480;SDS011;10399;50.754;3.366;2024-01-30T12:26:33;6.68;;;1.27;;
20480;SDS011;10399;50.754;3.366;2024-01-30T12:29:03;4.57;;;1.02;;
20480;SDS011;10399;50.754;3.366;2024-01-30T12:31:31;2.00;;;1.05;;
20480;SDS011;10399;50.754;3.366;2024-01-30T12:33:59;2.58;;;0.90;;
20480;SDS011;10399;50.754;3.366;2024-01-30T12:36:28;5.35;;;1.17;;
20480;SDS011;10399;50.754;3.366;2024-01-30T12:38:56;4.40;;;1.08;;
20480;SDS011;10399;50.754;3.366;2024-01-30T12:41:24;5.57;;;0.95;;
20480;SDS011;10399;50.754;3.366;2024-01-30T12:43:57;2.92;;;1.02;;
20480;SDS011;10399;50.754;3.366;2024-01-30T12:46:28;3.80;;;1.20;;
20480;SDS011;10399;50.754;3.366;2024-01-30T12:48:55;5.32;;;1.10;;
20480;SDS011;10399;50.754;3.366;2024-01-30T12:51:23;4.78;;;1.77;;
20480;SDS011;10399;50.754;3.366;2024-01-30T12:53:50;5.30;;;1.45;;
20480;SDS011;10399;50.754;3.366;2024-01-30T12:56:17;4.88;;;1.23;;
20480;SDS011;10399;50.754;3.366;2024-01-30T12:58:44;2.55;;;1.13;;
20480;SDS011;10399;50.754;3.366;2024-01-30T13:01:17;2.17;;;1.05;;
20480;SDS011;10399;50.754;3.366;2024-01-30T13:03:44;5.07;;;1.33;;
20480;SDS011;10399;50.754;3.366;2024-01-30T13:06:11;4.15;;;1.10;;
20480;SDS011;10399;50.754;3.366;2024-01-30T13:08:38;1.95;;;0.98;;
20480;SDS011;10399;50.754;3.366;2024-01-30T13:11:05;3.35;;;1.02;;
20480;SDS011;10399;50.754;3.366;2024-01-30T13:13:34;4.05;;;1.33;;
20480;SDS011;10399;50.754;3.366;2024-01-30T13:16:02;5.28;;;0.82;;
20480;SDS011;10399;50.754;3.366;2024-01-30T13:18:29;6.78;;;1.00;;
20480;SDS011;10399;50.754;3.366;2024-01-30T13:20:56;3.90;;;1.38;;
20480;SDS011;10399;50.754;3.366;2024-01-30T13:23:23;3.70;;;1.20;;
20480;SDS011;10399;50.754;3.366;2024-01-30T13:25:50;5.60;;;1.38;;
20480;SDS011;10399;50.754;3.366;2024-01-30T13:28:17;2.00;;;0.90;;
20480;SDS011;10399;50.754;3.366;2024-01-30T13:30:44;7.68;;;1.20;;
20480;SDS011;10399;50.754;3.366;2024-01-30T13:33:11;4.50;;;1.33;;
20480;SDS011;10399;50.754;3.366;2024-01-30T13:35:38;5.05;;;1.30;;
20480;SDS011;10399;50.754;3.366;2024-01-30T13:38:06;3.42;;;1.40;;
20480;SDS011;10399;50.754;3.366;2024-01-30T13:40:33;4.13;;;1.30;;
20480;SDS011;10399;50.754;3.366;2024-01-30T13:43:00;2.72;;;1.17;;
20480;SDS011;10399;50.754;3.366;2024-01-30T13:45:27;4.30;;;1.63;;
20480;SDS011;10399;50.754;3.366;2024-01-30T13:47:54;7.40;;;1.10;;
20480;SDS011;10399;50.754;3.366;2024-01-30T13:50:22;3.13;;;1.15;;
20480;SDS011;10399;50.754;3.366;2024-01-30T13:52:49;3.10;;;1.20;;
20480;SDS011;10399;50.754;3.366;2024-01-30T13:55:16;8.80;;;1.92;;
20480;SDS011;10399;50.754;3.366;2024-01-30T13:57:43;8.07;;;1.55;;
20480;SDS011;10399;50.754;3.366;2024-01-30T14:00:12;3.70;;;1.23;;
20480;SDS011;10399;50.754;3.366;2024-01-30T14:02:42;4.10;;;1.20;;
20480;SDS011;10399;50.754;3.366;2024-01-30T14:05:09;3.15;;;1.25;;
20480;SDS011;10399;50.754;3.366;2024-01-30T14:07:37;3.85;;;1.15;;
20480;SDS011;10399;50.754;3.366;2024-01-30T14:10:06;4.40;;;1.50;;
20480;SDS011;10399;50.754;3.366;2024-01-30T14:12:38;7.88;;;1.10;;
20480;SDS011;10399;50.754;3.366;2024-01-30T14:15:07;5.72;;;1.15;;
20480;SDS011;10399;50.754;3.366;2024-01-30T14:17:52;3.15;;;1.20;;
20480;SDS011;10399;50.754;3.366;2024-01-30T14:20:19;4.82;;;1.48;;
20480;SDS011;10399;50.754;3.366;2024-01-30T14:22:46;4.07;;;1.60;;
20480;SDS011;10399;50.754;3.366;2024-01-30T14:25:13;5.88;;;1.50;;
20480;SDS011;10399;50.754;3.366;2024-01-30T14:27:40;4.25;;;1.55;;
20480;SDS011;10399;50.754;3.366;2024-01-30T14:30:10;4.80;;;1.80;;
20480;SDS011;10399;50.754;3.366;2024-01-30T14:32:38;9.15;;;1.83;;
20480;SDS011;10399;50.754;3.366;2024-01-30T14:35:07;9.88;;;1.80;;
20480;SDS011;10399;50.754;3.366;2024-01-30T14:37:35;5.32;;;1.90;;
20480;SDS011;10399;50.754;3.366;2024-01-30T14:40:03;10.73;;;1.58;;
20480;SDS011;10399;50.754;3.366;2024-01-30T14:42:33;6.22;;;1.75;;
20480;SDS011;10399;50.754;3.366;2024-01-30T14:45:02;2.97;;;1.85;;
20480;SDS011;10399;50.754;3.366;2024-01-30T14:47:30;5.03;;;1.90;;